Time;durP1;ratioP1;P1;durP2;ratioP2;P2;SDS_P1;SDS_P2;PMS_P1;PMS_P2;Temp;Humidity;BMP_temperature;BMP_pressure;BME280_temperature;BME280_humidity;BME280_pressure;Samples;Min_cycle;Max_cycle;Signal;HPM_P1;HPM_P2
2022/01/30 00:01:19;;;;;;;32.42;5.68;;;;;;;;;;4922487;29;20035;-89
2022/01/30 00:03:45;;;;;;;43.90;6.35;;;;;;;;;;4947732;28;20547;-86
2022/01/30 00:06:12;;;;;;;42.60;6.68;;;;;;;;;;4927471;29;20562;-89
2022/01/30 00:08:38;;;;;;;35.92;6.70;;;;;;;;;;4925173;29;20135;-88
2022/01/30 00:11:14;;;;;;;35.70;6.30;;;;;;;;;;4927827;29;20043;-89
2022/01/30 00:13:40;;;;;;;30.83;5.97;;;;;;;;;;4937437;29;20452;-90
2022/01/30 00:16:09;;;;;;;47.50;8.07;;;;;;;;;;4941372;28;20039;-88
2022/01/30 00:24:06;;;;;;;40.58;6.10;;;;;;;;;;4918951;29;20052;-88
2022/01/30 00:26:35;;;;;;;41.13;7.35;;;;;;;;;;4940759;29;20043;-87
2022/01/30 00:29:01;;;;;;;43.45;8.48;;;;;;;;;;4940554;28;20046;-92
2022/01/30 00:31:40;;;;;;;41.17;7.65;;;;;;;;;;4945349;29;20051;-92
2022/01/30 00:34:06;;;;;;;36.80;6.40;;;;;;;;;;4939607;29;20087;-90
2022/01/30 00:36:33;;;;;;;27.48;5.35;;;;;;;;;;4949412;28;20530;-90
2022/01/30 00:38:59;;;;;;;43.22;6.03;;;;;;;;;;4932161;28;20583;-91
2022/01/30 00:41:26;;;;;;;29.15;5.40;;;;;;;;;;4939839;28;20087;-88
2022/01/30 00:43:52;;;;;;;43.22;6.43;;;;;;;;;;4925352;29;20525;-88
2022/01/30 00:46:18;;;;;;;30.17;5.03;;;;;;;;;;4941652;29;20086;-88
2022/01/30 00:48:44;;;;;;;41.13;6.38;;;;;;;;;;4943525;28;20530;-91
2022/01/30 00:51:10;;;;;;;45.00;6.70;;;;;;;;;;4944425;29;20039;-91
2022/01/30 00:53:38;;;;;;;39.78;6.53;;;;;;;;;;4947493;29;20054;-90
2022/01/30 00:56:13;;;;;;;30.52;5.32;;;;;;;;;;4928150;29;20043;-89
2022/01/30 00:58:48;;;;;;;44.35;6.90;;;;;;;;;;4944462;28;20496;-88
2022/01/30 01:01:14;;;;;;;41.22;7.45;;;;;;;;;;4941153;28;20134;-90
2022/01/30 01:03:40;;;;;;;43.97;6.00;;;;;;;;;;4927842;29;20113;-90
2022/01/30 01:06:06;;;;;;;39.60;6.32;;;;;;;;;;4944995;28;20169;-92
2022/01/30 01:08:48;;;;;;;42.17;7.07;;;;;;;;;;4927450;29;20043;-92
2022/01/30 01:24:43;;;;;;;;;;;;;;;;;;4932642;28;20164;-91
2022/01/30 01:27:09;;;;;;;38.47;6.15;;;;;;;;;;4923943;29;20535;-89
2022/01/30 01:29:35;;;;;;;31.58;4.88;;;;;;;;;;4930019;29;20050;-88
2022/01/30 01:32:03;;;;;;;21.02;4.80;;;;;;;;;;4953082;28;20122;-88
2022/01/30 01:36:55;;;;;;;18.27;3.95;;;;;;;;;;4950985;29;20070;-88
2022/01/30 01:39:21;;;;;;;31.55;4.43;;;;;;;;;;4922725;28;20043;-87
2022/01/30 01:41:51;;;;;;;25.25;3.97;;;;;;;;;;4951664;29;20046;-88
2022/01/30 01:44:18;;;;;;;35.25;5.78;;;;;;;;;;4966025;28;20597;-88
2022/01/30 01:46:46;;;;;;;34.75;6.05;;;;;;;;;;4950374;28;20055;-88
2022/01/30 01:49:19;;;;;;;37.08;7.43;;;;;;;;;;4956330;29;20045;-87
2022/01/30 01:51:49;;;;;;;36.20;5.88;;;;;;;;;;4946294;29;20062;-88
2022/01/30 01:54:22;;;;;;;43.55;7.82;;;;;;;;;;4947633;28;20058;-88
2022/01/30 01:56:48;;;;;;;44.58;7.53;;;;;;;;;;4949845;29;20137;-87
2022/01/30 01:59:14;;;;;;;55.78;6.00;;;;;;;;;;4948103;29;20129;-87
2022/01/30 02:01:40;;;;;;;44.65;7.63;;;;;;;;;;4948669;29;20208;-87
2022/01/30 02:04:10;;;;;;;40.58;7.38;;;;;;;;;;4948671;29;20423;-90
2022/01/30 02:06:36;;;;;;;43.80;6.28;;;;;;;;;;4945851;29;20081;-87
2022/01/30 02:09:09;;;;;;;46.00;8.13;;;;;;;;;;4932704;29;20492;-89
2022/01/30 02:11:39;;;;;;;46.38;7.15;;;;;;;;;;4930431;29;20126;-89
2022/01/30 02:27:44;;;;;;;49.13;8.95;;;;;;;;;;4942646;29;20059;-88
2022/01/30 02:30:13;;;;;;;53.17;9.48;;;;;;;;;;4948222;28;20085;-87
2022/01/30 02:32:40;;;;;;;63.10;9.93;;;;;;;;;;4947623;28;20058;-86
2022/01/30 02:35:06;;;;;;;43.22;8.15;;;;;;;;;;4944097;29;20522;-88
2022/01/30 02:37:32;;;;;;;56.03;8.23;;;;;;;;;;4949276;29;20073;-89
2022/01/30 02:39:59;;;;;;;58.28;7.97;;;;;;;;;;4945987;29;20186;-87
2022/01/30 02:42:32;;;;;;;50.53;7.38;;;;;;;;;;4950141;28;20075;-88
2022/01/30 02:45:05;;;;;;;50.67;7.40;;;;;;;;;;4950964;29;20043;-91
2022/01/30 02:50:21;;;;;;;54.60;9.63;;;;;;;;;;4948857;29;20043;-87
2022/01/30 02:52:57;;;;;;;47.63;7.38;;;;;;;;;;4948148;29;20403;-90
2022/01/30 02:55:23;;;;;;;45.40;8.80;;;;;;;;;;4949379;28;20480;-87
2022/01/30 02:57:50;;;;;;;49.03;8.43;;;;;;;;;;4947963;28;20375;-87
2022/01/30 03:00:16;;;;;;;58.40;7.88;;;;;;;;;;4949472;29;20039;-87
2022/01/30 03:02:51;;;;;;;53.88;8.95;;;;;;;;;;4943855;28;20066;-90
2022/01/30 03:05:17;;;;;;;59.63;8.77;;;;;;;;;;4947913;29;20055;-87
2022/01/30 03:07:43;;;;;;;45.90;8.65;;;;;;;;;;4946484;29;20582;-87
2022/01/30 03:10:11;;;;;;;64.22;9.85;;;;;;;;;;4946410;28;20578;-88
2022/01/30 03:12:37;;;;;;;40.55;7.30;;;;;;;;;;4962295;28;20058;-88
2022/01/30 03:15:03;;;;;;;53.63;9.85;;;;;;;;;;4947214;29;20534;-87
2022/01/30 03:17:29;;;;;;;45.10;7.43;;;;;;;;;;4953111;29;20134;-87
2022/01/30 03:19:56;;;;;;;53.33;9.10;;;;;;;;;;4914449;29;20044;-90
2022/01/30 03:22:23;;;;;;;62.72;9.38;;;;;;;;;;4965484;28;20058;-88
2022/01/30 03:24:49;;;;;;;46.20;9.35;;;;;;;;;;4963011;28;20508;-88
2022/01/30 03:27:15;;;;;;;54.80;8.85;;;;;;;;;;4933827;29;20494;-88
2022/01/30 03:29:49;;;;;;;53.28;8.63;;;;;;;;;;4946921;29;20031;-87
2022/01/30 03:32:15;;;;;;;59.22;7.60;;;;;;;;;;4930054;29;20138;-88
2022/01/30 03:34:41;;;;;;;52.35;8.30;;;;;;;;;;4940930;28;20068;-87
2022/01/30 03:37:08;;;;;;;47.30;9.27;;;;;;;;;;4946692;28;20035;-87
2022/01/30 03:39:34;;;;;;;40.03;8.20;;;;;;;;;;4961201;28;20400;-88
2022/01/30 03:42:00;;;;;;;36.25;7.35;;;;;;;;;;4942682;29;20395;-87
2022/01/30 03:44:26;;;;;;;47.55;8.98;;;;;;;;;;4947139;28;20519;-88
2022/01/30 03:46:52;;;;;;;43.88;7.90;;;;;;;;;;4932039;29;20051;-88
2022/01/30 03:49:18;;;;;;;62.28;10.13;;;;;;;;;;4915826;29;20035;-87
2022/01/30 03:51:44;;;;;;;79.60;10.50;;;;;;;;;;4943903;29;20040;-87
2022/01/30 03:54:10;;;;;;;51.15;8.07;;;;;;;;;;4952701;28;20046;-87
2022/01/30 03:56:36;;;;;;;50.83;9.15;;;;;;;;;;4953206;28;20058;-87
2022/01/30 03:59:02;;;;;;;64.97;8.93;;;;;;;;;;4952468;29;20042;-87
2022/01/30 04:01:28;;;;;;;60.13;9.60;;;;;;;;;;4948690;28;20118;-93
2022/01/30 04:03:54;;;;;;;54.92;10.02;;;;;;;;;;4962711;28;20048;-90
2022/01/30 04:06:27;;;;;;;54.55;9.23;;;;;;;;;;4948057;29;20484;-93
2022/01/30 04:08:53;;;;;;;63.17;9.30;;;;;;;;;;4931201;29;20411;-90
2022/01/30 04:11:20;;;;;;;53.08;8.82;;;;;;;;;;4949498;29;20138;-88
2022/01/30 04:13:47;;;;;;;52.17;9.43;;;;;;;;;;4942263;28;20094;-91
2022/01/30 04:16:14;;;;;;;48.03;9.30;;;;;;;;;;4932652;29;20507;-92
2022/01/30 04:18:40;;;;;;;44.55;8.18;;;;;;;;;;4946814;28;20522;-92
2022/01/30 04:21:06;;;;;;;51.67;7.97;;;;;;;;;;4932629;29;20120;-90
2022/01/30 04:23:32;;;;;;;44.20;7.93;;;;;;;;;;4910849;29;20039;-91
2022/01/30 04:25:58;;;;;;;49.08;7.97;;;;;;;;;;4908101;29;20094;-89
2022/01/30 04:28:24;;;;;;;51.60;9.45;;;;;;;;;;4945371;29;20043;-87
2022/01/30 04:30:51;;;;;;;50.50;9.75;;;;;;;;;;4914820;29;20047;-88
2022/01/30 04:33:17;;;;;;;66.78;9.13;;;;;;;;;;4930305;29;20571;-87
2022/01/30 04:35:44;;;;;;;53.28;9.32;;;;;;;;;;4903452;29;20075;-88
2022/01/30 04:41:07;;;;;;;39.95;8.52;;;;;;;;;;4948199;29;20130;-86
2022/01/30 04:57:23;;;;;;;42.50;7.43;;;;;;;;;;4932806;29;20507;-87
2022/01/30 05:07:33;;;;;;;50.42;8.45;;;;;;;;;;4950315;29;20091;-88
2022/01/30 05:09:59;;;;;;;51.25;7.93;;;;;;;;;;4931369;29;20526;-87
2022/01/30 05:12:40;;;;;;;51.35;8.93;;;;;;;;;;4932799;29;20043;-90
2022/01/30 05:15:06;;;;;;;47.42;10.32;;;;;;;;;;4947133;29;20051;-87
2022/01/30 05:17:38;;;;;;;39.42;7.47;;;;;;;;;;4950674;29;20365;-87
2022/01/30 05:20:05;;;;;;;47.78;8.82;;;;;;;;;;4933155;29;20474;-87
2022/01/30 05:22:31;;;;;;;41.53;8.88;;;;;;;;;;4952218;29;20043;-88
2022/01/30 05:24:57;;;;;;;40.45;7.90;;;;;;;;;;4949388;29;20046;-88
2022/01/30 05:27:23;;;;;;;53.83;9.63;;;;;;;;;;4952025;29;20052;-87
2022/01/30 05:29:49;;;;;;;57.30;8.63;;;;;;;;;;4950053;28;20050;-87
2022/01/30 05:32:16;;;;;;;64.25;8.90;;;;;;;;;;4949822;29;20035;-88
2022/01/30 05:34:55;;;;;;;60.50;8.35;;;;;;;;;;4949190;29;20039;-88
2022/01/30 05:37:22;;;;;;;52.53;8.93;;;;;;;;;;4947697;29;20055;-88
2022/01/30 05:39:48;;;;;;;40.47;7.53;;;;;;;;;;4949364;29;20078;-87
2022/01/30 05:42:21;;;;;;;45.95;7.70;;;;;;;;;;4916864;29;20392;-87
2022/01/30 05:44:56;;;;;;;49.03;9.02;;;;;;;;;;4950025;29;20113;-90
2022/01/30 05:47:28;;;;;;;42.47;7.72;;;;;;;;;;4948160;29;20047;-88
2022/01/30 05:50:06;;;;;;;38.58;7.80;;;;;;;;;;4950273;28;20205;-88
2022/01/30 05:52:32;;;;;;;55.72;7.78;;;;;;;;;;4950784;28;20050;-88
2022/01/30 05:55:05;;;;;;;58.53;9.57;;;;;;;;;;4918321;29;20123;-90
2022/01/30 05:57:43;;;;;;;64.45;10.40;;;;;;;;;;4952072;29;20154;-88
2022/01/30 06:00:13;;;;;;;54.97;8.75;;;;;;;;;;4946617;29;20051;-87
2022/01/30 06:02:40;;;;;;;44.13;8.32;;;;;;;;;;4953957;28;20035;-87
2022/01/30 06:05:08;;;;;;;42.83;8.45;;;;;;;;;;4954998;28;20067;-88
2022/01/30 06:07:34;;;;;;;59.42;9.20;;;;;;;;;;4964305;28;20423;-89
2022/01/30 06:10:01;;;;;;;57.08;9.07;;;;;;;;;;4951174;28;20055;-89
2022/01/30 06:12:27;;;;;;;57.20;9.60;;;;;;;;;;4949411;28;20074;-88
2022/01/30 06:14:53;;;;;;;50.72;8.65;;;;;;;;;;4951924;29;20062;-90
2022/01/30 06:17:28;;;;;;;70.55;10.60;;;;;;;;;;4949233;29;20114;-89
2022/01/30 06:19:54;;;;;;;40.40;7.88;;;;;;;;;;4932693;29;20050;-89
2022/01/30 06:22:20;;;;;;;46.42;9.18;;;;;;;;;;4915519;29;20063;-91
2022/01/30 06:24:46;;;;;;;52.65;8.07;;;;;;;;;;4913876;29;20059;-91
2022/01/30 06:27:12;;;;;;;58.28;8.13;;;;;;;;;;4932736;29;20047;-90
2022/01/30 06:29:39;;;;;;;60.50;9.65;;;;;;;;;;4931948;28;20039;-89
2022/01/30 06:32:05;;;;;;;46.97;9.13;;;;;;;;;;4950127;29;20074;-89
2022/01/30 06:34:31;;;;;;;50.10;9.35;;;;;;;;;;4947793;29;20087;-89
2022/01/30 06:36:57;;;;;;;37.80;6.63;;;;;;;;;;4947780;29;20105;-90
2022/01/30 06:39:23;;;;;;;24.60;4.75;;;;;;;;;;4929888;29;20051;-89
2022/01/30 06:41:49;;;;;;;32.97;5.82;;;;;;;;;;4950148;29;20071;-87
2022/01/30 06:44:16;;;;;;;43.35;8.38;;;;;;;;;;4885017;29;20042;-89
2022/01/30 06:46:42;;;;;;;28.73;4.95;;;;;;;;;;4909216;29;20043;-88
2022/01/30 06:49:08;;;;;;;33.78;7.38;;;;;;;;;;4924932;29;20170;-89
2022/01/30 06:51:34;;;;;;;43.33;7.50;;;;;;;;;;4928142;29;20089;-90
2022/01/30 06:54:06;;;;;;;40.15;6.25;;;;;;;;;;4941250;28;20767;-91
2022/01/30 06:56:32;;;;;;;40.10;7.15;;;;;;;;;;4926838;29;20110;-89
2022/01/30 06:58:58;;;;;;;36.90;6.57;;;;;;;;;;4925619;29;20378;-89
2022/01/30 07:01:25;;;;;;;39.08;6.93;;;;;;;;;;4945786;28;20134;-89
2022/01/30 07:03:52;;;;;;;44.25;7.00;;;;;;;;;;4948228;29;20051;-91
2022/01/30 07:06:30;;;;;;;30.52;6.07;;;;;;;;;;4930354;28;20411;-89
2022/01/30 07:08:56;;;;;;;32.97;6.40;;;;;;;;;;4946360;28;20126;-88
2022/01/30 07:11:23;;;;;;;35.13;5.95;;;;;;;;;;4915835;28;20039;-90
2022/01/30 07:13:49;;;;;;;32.35;5.88;;;;;;;;;;4960484;28;20138;-88
2022/01/30 07:16:15;;;;;;;40.35;7.45;;;;;;;;;;4947741;28;20050;-87
2022/01/30 07:18:42;;;;;;;40.75;7.45;;;;;;;;;;4942862;28;20039;-87
2022/01/30 07:21:09;;;;;;;45.15;9.07;;;;;;;;;;4946425;28;20163;-87
2022/01/30 07:23:45;;;;;;;41.85;6.57;;;;;;;;;;4925804;29;20055;-88
2022/01/30 07:26:11;;;;;;;45.30;8.40;;;;;;;;;;4940751;28;20534;-86
2022/01/30 07:28:37;;;;;;;44.67;6.93;;;;;;;;;;4941004;28;20054;-89
2022/01/30 07:31:03;;;;;;;45.25;8.07;;;;;;;;;;4942774;28;20039;-88
2022/01/30 07:33:29;;;;;;;43.33;8.60;;;;;;;;;;4938142;28;20416;-87
2022/01/30 07:35:56;;;;;;;48.28;9.13;;;;;;;;;;4948548;28;20097;-87
2022/01/30 07:38:23;;;;;;;50.42;7.93;;;;;;;;;;4947686;28;20047;-88
2022/01/30 07:40:50;;;;;;;47.10;10.23;;;;;;;;;;4946396;28;20050;-88
2022/01/30 07:43:17;;;;;;;54.42;9.00;;;;;;;;;;4949923;28;20051;-90
2022/01/30 07:45:46;;;;;;;55.00;9.35;;;;;;;;;;4944548;28;20055;-89
2022/01/30 07:48:12;;;;;;;46.10;9.63;;;;;;;;;;4958444;28;20051;-88
2022/01/30 07:50:38;;;;;;;54.85;9.27;;;;;;;;;;4956589;28;20043;-88
2022/01/30 07:53:04;;;;;;;69.63;11.55;;;;;;;;;;4927013;29;20043;-87
2022/01/30 07:55:30;;;;;;;50.75;8.60;;;;;;;;;;4960552;28;20500;-88
2022/01/30 07:57:56;;;;;;;54.58;10.23;;;;;;;;;;4946040;29;20430;-88
2022/01/30 08:00:28;;;;;;;51.33;9.80;;;;;;;;;;4923148;29;20107;-89
2022/01/30 08:02:54;;;;;;;36.47;6.72;;;;;;;;;;4921257;28;20110;-88
2022/01/30 08:05:21;;;;;;;46.03;7.50;;;;;;;;;;4968016;28;20106;-87
2022/01/30 08:07:57;;;;;;;;;;;;;;;;;;;;;
2022/01/30 08:10:26;;;;;;;46.15;7.80;;;;;;;;;;4990526;23;20055;-88
2022/01/30 08:13:07;;;;;;;49.78;10.27;;;;;;;;;;4954953;28;20146;-88
2022/01/30 08:15:33;;;;;;;48.42;8.43;;;;;;;;;;4950561;28;20089;-93
2022/01/30 08:18:00;;;;;;;62.28;9.80;;;;;;;;;;4949053;28;20062;-87
2022/01/30 08:20:27;;;;;;;56.25;10.13;;;;;;;;;;4970193;28;20046;-88
2022/01/30 08:22:54;;;;;;;57.95;10.25;;;;;;;;;;4947030;28;20114;-88
2022/01/30 08:25:32;;;;;;;52.65;8.75;;;;;;;;;;4940298;28;20042;-87
2022/01/30 08:27:58;;;;;;;49.83;8.80;;;;;;;;;;4950046;28;20065;-87
2022/01/30 08:30:27;;;;;;;48.20;8.00;;;;;;;;;;4960317;28;20062;-88
2022/01/30 08:32:53;;;;;;;47.65;7.53;;;;;;;;;;4949049;28;20146;-88
2022/01/30 08:35:20;;;;;;;38.65;6.15;;;;;;;;;;4958587;28;20039;-87
2022/01/30 08:37:46;;;;;;;41.92;7.10;;;;;;;;;;4934005;28;20130;-88
2022/01/30 08:40:17;;;;;;;33.97;6.85;;;;;;;;;;4947822;28;20074;-89
2022/01/30 08:42:44;;;;;;;50.20;8.52;;;;;;;;;;4946132;28;20070;-88
2022/01/30 08:45:12;;;;;;;48.05;8.65;;;;;;;;;;4962038;28;20042;-86
2022/01/30 08:47:39;;;;;;;57.10;9.57;;;;;;;;;;4949695;28;20042;-85
2022/01/30 08:50:06;;;;;;;49.33;8.13;;;;;;;;;;4943736;28;20535;-88
2022/01/30 08:52:32;;;;;;;52.60;8.45;;;;;;;;;;4950489;28;20065;-87
2022/01/30 08:54:58;;;;;;;51.72;7.70;;;;;;;;;;4919907;29;20173;-87
2022/01/30 08:57:24;;;;;;;49.38;7.78;;;;;;;;;;4935106;28;20047;-87
2022/01/30 08:59:51;;;;;;;48.53;9.00;;;;;;;;;;4963035;28;20045;-87
2022/01/30 09:02:19;;;;;;;48.83;8.43;;;;;;;;;;4968796;28;20035;-88
2022/01/30 09:04:45;;;;;;;52.08;9.55;;;;;;;;;;4921950;28;20050;-87
2022/01/30 09:07:11;;;;;;;65.32;10.50;;;;;;;;;;4923765;28;20047;-87
2022/01/30 09:09:37;;;;;;;40.97;8.63;;;;;;;;;;4925010;28;20581;-87
2022/01/30 09:12:03;;;;;;;50.75;8.02;;;;;;;;;;4931599;28;20063;-86
2022/01/30 09:14:30;;;;;;;56.33;8.40;;;;;;;;;;4963391;28;20050;-87
2022/01/30 09:16:56;;;;;;;55.13;9.75;;;;;;;;;;4942134;28;20047;-86
2022/01/30 09:19:22;;;;;;;58.20;9.85;;;;;;;;;;4946962;28;20043;-89
2022/01/30 09:21:52;;;;;;;56.55;9.85;;;;;;;;;;4960161;28;20042;-87
2022/01/30 09:24:18;;;;;;;58.10;9.10;;;;;;;;;;4961475;28;20458;-86
2022/01/30 09:26:44;;;;;;;62.28;9.48;;;;;;;;;;4946670;28;20051;-86
2022/01/30 09:29:10;;;;;;;64.10;9.23;;;;;;;;;;4962854;28;20047;-88
2022/01/30 09:31:36;;;;;;;57.88;11.13;;;;;;;;;;4945935;28;20057;-86
2022/01/30 09:34:02;;;;;;;48.42;8.38;;;;;;;;;;4944177;28;20578;-89
2022/01/30 09:36:29;;;;;;;49.80;8.80;;;;;;;;;;4964268;28;20415;-88
2022/01/30 09:38:55;;;;;;;64.05;10.10;;;;;;;;;;4939516;28;20086;-88
2022/01/30 09:41:22;;;;;;;43.67;8.77;;;;;;;;;;4946180;28;20047;-86
2022/01/30 09:43:48;;;;;;;47.95;8.02;;;;;;;;;;4951665;28;20062;-91
2022/01/30 09:46:15;;;;;;;51.42;8.57;;;;;;;;;;4966994;28;20035;-89
2022/01/30 09:48:41;;;;;;;77.40;9.98;;;;;;;;;;4957988;28;20074;-88
2022/01/30 09:51:08;;;;;;;51.30;8.95;;;;;;;;;;4951789;28;20039;-88
2022/01/30 09:53:35;;;;;;;43.67;7.32;;;;;;;;;;4945713;28;20515;-88
2022/01/30 09:56:06;;;;;;;50.53;9.40;;;;;;;;;;4968272;28;20039;-88
2022/01/30 09:58:35;;;;;;;48.47;8.50;;;;;;;;;;4951978;28;20130;-94
2022/01/30 10:01:02;;;;;;;54.40;8.80;;;;;;;;;;4967497;28;20380;-91
2022/01/30 10:03:28;;;;;;;67.85;9.25;;;;;;;;;;4929479;28;20513;-88
2022/01/30 10:06:13;;;;;;;52.63;10.25;;;;;;;;;;4967705;28;20047;-88
2022/01/30 10:08:45;;;;;;;38.50;6.95;;;;;;;;;;4942342;28;20054;-87
2022/01/30 10:11:33;;;;;;;53.40;9.85;;;;;;;;;;4966937;28;20093;-88
2022/01/30 10:14:05;;;;;;;44.78;9.65;;;;;;;;;;4973459;28;20090;-86
2022/01/30 10:16:38;;;;;;;36.72;7.18;;;;;;;;;;4940681;28;20141;-87
2022/01/30 10:19:11;;;;;;;48.50;9.90;;;;;;;;;;4966056;28;20158;-87
2022/01/30 10:21:37;;;;;;;51.75;8.73;;;;;;;;;;4945228;28;20096;-88
2022/01/30 10:24:22;;;;;;;54.95;10.18;;;;;;;;;;4961978;28;20434;-88
2022/01/30 10:26:48;;;;;;;;;;;;;;;;;;4966190;28;20054;-88
2022/01/30 10:29:32;;;;;;;60.75;9.70;;;;;;;;;;4949604;28;19973;-88
2022/01/30 10:31:58;;;;;;;58.33;10.07;;;;;;;;;;4962039;28;20039;-88
2022/01/30 10:34:26;;;;;;;52.50;8.13;;;;;;;;;;4970070;28;20128;-87
2022/01/30 10:37:11;;;;;;;41.65;5.97;;;;;;;;;;4944589;28;20046;-88
2022/01/30 10:39:52;;;;;;;42.25;7.10;;;;;;;;;;4924319;28;20074;-88
2022/01/30 10:42:37;;;;;;;40.63;7.20;;;;;;;;;;4963403;28;20043;-87
2022/01/30 10:45:03;;;;;;;36.65;7.57;;;;;;;;;;4966859;28;20054;-88
2022/01/30 10:47:32;;;;;;;45.78;6.32;;;;;;;;;;4950585;28;20475;-89
2022/01/30 10:49:58;;;;;;;41.63;7.80;;;;;;;;;;4940089;28;20538;-89
2022/01/30 10:52:24;;;;;;;42.63;7.82;;;;;;;;;;4947781;28;20039;-87
2022/01/30 10:54:51;;;;;;;49.92;8.48;;;;;;;;;;4940213;28;20077;-88
2022/01/30 10:57:18;;;;;;;36.78;6.80;;;;;;;;;;4967592;28;20073;-90
2022/01/30 10:59:52;;;;;;;42.00;7.30;;;;;;;;;;4956280;28;20066;-89
2022/01/30 11:02:18;;;;;;;;;;;;;;;;;;4952585;28;20043;-89
2022/01/30 11:04:45;;;;;;;51.38;6.53;;;;;;;;;;4954838;28;20035;-89
2022/01/30 11:07:15;;;;;;;49.63;8.70;;;;;;;;;;4970839;28;20047;-89
2022/01/30 11:09:54;;;;;;;50.13;7.72;;;;;;;;;;4957197;28;20065;-88
2022/01/30 11:12:30;;;;;;;48.10;7.97;;;;;;;;;;4968875;28;20529;-92
2022/01/30 11:15:17;;;;;;;47.17;7.47;;;;;;;;;;4942323;28;20067;-88
2022/01/30 11:17:44;;;;;;;50.13;7.68;;;;;;;;;;4946492;28;20284;-89
2022/01/30 11:20:29;;;;;;;48.35;9.40;;;;;;;;;;4945124;28;20143;-88
2022/01/30 11:22:59;;;;;;;43.53;7.55;;;;;;;;;;4957212;28;20542;-87
2022/01/30 11:25:35;;;;;;;44.88;8.60;;;;;;;;;;4961032;28;20039;-91
2022/01/30 11:28:06;;;;;;;58.78;9.25;;;;;;;;;;4941721;28;20167;-88
2022/01/30 11:30:33;;;;;;;54.25;9.43;;;;;;;;;;4962864;28;20070;-87
2022/01/30 11:33:05;;;;;;;48.85;7.80;;;;;;;;;;4937319;28;20055;-87
2022/01/30 11:35:31;;;;;;;44.03;7.90;;;;;;;;;;4952174;28;20069;-88
2022/01/30 11:37:57;;;;;;;45.40;8.40;;;;;;;;;;4943017;28;20030;-88
2022/01/30 11:40:23;;;;;;;46.53;8.48;;;;;;;;;;4962399;28;20621;-87
2022/01/30 11:42:55;;;;;;;51.67;8.25;;;;;;;;;;4927073;28;20105;-88
2022/01/30 11:45:24;;;;;;;55.42;8.63;;;;;;;;;;4942456;28;20050;-86
2022/01/30 11:47:51;;;;;;;56.20;8.05;;;;;;;;;;4943405;28;20499;-87
2022/01/30 11:50:21;;;;;;;57.28;10.05;;;;;;;;;;4945344;28;20039;-86
2022/01/30 11:53:06;;;;;;;53.78;8.75;;;;;;;;;;4965898;28;20117;-87
2022/01/30 11:55:39;;;;;;;60.03;8.80;;;;;;;;;;4943723;28;20039;-87
2022/01/30 11:58:28;;;;;;;45.47;8.00;;;;;;;;;;4962388;28;20038;-86
2022/01/30 12:01:01;;;;;;;58.85;10.30;;;;;;;;;;4941349;28;20050;-88
2022/01/30 12:03:28;;;;;;;53.27;8.97;;;;;;;;;;4942773;28;20070;-87
2022/01/30 12:06:13;;;;;;;45.45;8.43;;;;;;;;;;4929211;28;20071;-90
2022/01/30 12:08:50;;;;;;;51.88;8.80;;;;;;;;;;4945857;28;20058;-87
2022/01/30 12:11:47;;;;;;;;;;;;;;;;;;;;;
2022/01/30 12:14:43;;;;;;;36.72;7.20;;;;;;;;;;4969823;28;20057;-88
2022/01/30 12:17:13;;;;;;;48.95;7.72;;;;;;;;;;4961557;28;20054;-87
2022/01/30 12:19:40;;;;;;;44.58;8.05;;;;;;;;;;4970473;28;20039;-87
2022/01/30 12:22:18;;;;;;;49.67;7.55;;;;;;;;;;4951456;28;20051;-88
2022/01/30 12:24:46;;;;;;;53.78;8.80;;;;;;;;;;4951429;28;20043;-89
2022/01/30 12:27:12;;;;;;;43.45;7.03;;;;;;;;;;4951073;28;20050;-89
2022/01/30 12:29:40;;;;;;;54.40;7.65;;;;;;;;;;4949447;28;20129;-90
2022/01/30 12:32:24;;;;;;;54.38;8.15;;;;;;;;;;4966905;28;20065;-91
2022/01/30 12:35:16;;;;;;;53.00;8.73;;;;;;;;;;4983854;28;21409;-91
2022/01/30 12:37:51;;;;;;;45.08;8.32;;;;;;;;;;4980495;28;20047;-89
2022/01/30 12:40:27;;;;;;;47.92;8.65;;;;;;;;;;4982673;28;20133;-89
2022/01/30 12:42:55;;;;;;;54.83;8.20;;;;;;;;;;4965687;28;20086;-92
2022/01/30 12:45:21;;;;;;;50.53;7.70;;;;;;;;;;4980992;28;20038;-88
2022/01/30 12:47:52;;;;;;;47.70;8.20;;;;;;;;;;4948914;28;20042;-87
2022/01/30 12:50:20;;;;;;;48.58;7.65;;;;;;;;;;4943817;28;20078;-86
2022/01/30 12:52:52;;;;;;;56.00;8.77;;;;;;;;;;4986706;28;20790;-85
2022/01/30 12:55:18;;;;;;;52.83;7.75;;;;;;;;;;4969796;28;20043;-87
2022/01/30 12:57:46;;;;;;;48.53;7.72;;;;;;;;;;4962528;28;20058;-86
2022/01/30 13:00:17;;;;;;;52.92;8.52;;;;;;;;;;4975308;28;20046;-88
2022/01/30 13:03:13;;;;;;;49.38;9.07;;;;;;;;;;4957543;28;20052;-86
2022/01/30 13:05:44;;;;;;;44.83;8.45;;;;;;;;;;4949793;28;20054;-86
2022/01/30 13:08:10;;;;;;;38.75;6.63;;;;;;;;;;4960555;28;20403;-87
2022/01/30 13:10:36;;;;;;;51.20;8.05;;;;;;;;;;4940601;28;20446;-87
2022/01/30 13:13:08;;;;;;;38.08;6.05;;;;;;;;;;4964573;28;20086;-91
2022/01/30 13:15:41;;;;;;;43.40;7.28;;;;;;;;;;4964609;28;20043;-85
2022/01/30 13:18:07;;;;;;;51.35;8.02;;;;;;;;;;4949474;28;20495;-86
2022/01/30 13:20:33;;;;;;;46.78;6.78;;;;;;;;;;4948896;28;20039;-86
2022/01/30 13:22:59;;;;;;;38.38;7.30;;;;;;;;;;4948783;28;20570;-86
2022/01/30 13:25:34;;;;;;;35.47;5.28;;;;;;;;;;4949315;28;20126;-86
2022/01/30 13:28:00;;;;;;;39.28;5.82;;;;;;;;;;4965958;28;20042;-86
2022/01/30 13:30:39;;;;;;;40.22;6.38;;;;;;;;;;4962886;28;20040;-90
2022/01/30 13:33:24;;;;;;;41.65;6.40;;;;;;;;;;4922012;28;20470;-86
2022/01/30 13:35:51;;;;;;;52.95;6.43;;;;;;;;;;4964725;28;20145;-86
2022/01/30 13:38:27;;;;;;;42.72;6.47;;;;;;;;;;4953018;28;20039;-85
2022/01/30 13:40:58;;;;;;;37.25;6.82;;;;;;;;;;4934078;28;20051;-85
2022/01/30 13:43:28;;;;;;;40.72;6.40;;;;;;;;;;4949725;28;20066;-85
2022/01/30 13:48:21;;;;;;;43.42;8.05;;;;;;;;;;4970060;28;20494;-85
2022/01/30 13:51:03;;;;;;;37.20;6.28;;;;;;;;;;4967483;28;20130;-87
2022/01/30 13:53:34;;;;;;;47.20;8.20;;;;;;;;;;4967268;28;20165;-85
2022/01/30 13:56:00;;;;;;;52.58;7.88;;;;;;;;;;4965156;28;20055;-86
2022/01/30 13:58:30;;;;;;;39.55;6.65;;;;;;;;;;4952008;28;20035;-85
2022/01/30 14:00:56;;;;;;;36.40;6.18;;;;;;;;;;4951905;28;20399;-85
2022/01/30 14:03:31;;;;;;;47.55;7.05;;;;;;;;;;4968995;28;20129;-90
2022/01/30 14:05:57;;;;;;;43.63;7.25;;;;;;;;;;4952396;28;20077;-85
2022/01/30 14:08:24;;;;;;;44.00;6.80;;;;;;;;;;4950893;28;20047;-88
2022/01/30 14:10:50;;;;;;;41.92;6.07;;;;;;;;;;4919341;28;20059;-86
2022/01/30 14:13:19;;;;;;;37.75;6.28;;;;;;;;;;4950953;28;20050;-86
2022/01/30 14:15:59;;;;;;;37.65;6.80;;;;;;;;;;4960238;28;20058;-85
2022/01/30 14:18:27;;;;;;;39.83;6.80;;;;;;;;;;4949489;28;20035;-87
2022/01/30 14:20:53;;;;;;;39.00;5.93;;;;;;;;;;4971955;28;20074;-85
2022/01/30 14:23:33;;;;;;;45.03;7.07;;;;;;;;;;4948488;28;20117;-90
2022/01/30 14:25:59;;;;;;;44.13;6.50;;;;;;;;;;4949851;28;20051;-86
2022/01/30 14:28:27;;;;;;;40.60;6.90;;;;;;;;;;4957599;28;20035;-89
2022/01/30 14:30:53;;;;;;;45.25;7.32;;;;;;;;;;4964983;28;20050;-85
2022/01/30 14:33:23;;;;;;;48.55;8.00;;;;;;;;;;4958423;28;20621;-91
2022/01/30 14:35:49;;;;;;;33.30;5.68;;;;;;;;;;4933900;28;20096;-87
2022/01/30 14:38:15;;;;;;;33.92;5.82;;;;;;;;;;4961150;28;20062;-86
2022/01/30 14:40:41;;;;;;;33.15;5.47;;;;;;;;;;4959760;28;20043;-85
2022/01/30 14:43:08;;;;;;;43.75;6.80;;;;;;;;;;4964982;28;20039;-88
2022/01/30 14:45:35;;;;;;;32.97;5.80;;;;;;;;;;4948904;28;20123;-89
2022/01/30 14:48:02;;;;;;;34.47;6.25;;;;;;;;;;4965230;28;22102;-90
2022/01/30 14:50:28;;;;;;;34.00;6.35;;;;;;;;;;4961739;28;20042;-88
2022/01/30 14:52:58;;;;;;;41.40;6.93;;;;;;;;;;4951167;28;20454;-90
2022/01/30 14:55:24;;;;;;;32.60;5.88;;;;;;;;;;4945792;28;20050;-88
2022/01/30 14:57:53;;;;;;;28.45;5.65;;;;;;;;;;4957497;28;20054;-90
2022/01/30 15:00:21;;;;;;;38.83;6.47;;;;;;;;;;4928878;28;20388;-88
2022/01/30 15:02:50;;;;;;;39.45;5.65;;;;;;;;;;4959777;28;20503;-90
2022/01/30 15:05:25;;;;;;;33.45;6.05;;;;;;;;;;4914992;28;20035;-89
2022/01/30 15:07:51;;;;;;;36.88;5.38;;;;;;;;;;4947212;28;20990;-89
2022/01/30 15:10:18;;;;;;;41.33;5.80;;;;;;;;;;4961412;28;20383;-88
2022/01/30 15:12:44;;;;;;;38.92;5.55;;;;;;;;;;4950602;28;20490;-88
2022/01/30 15:15:12;;;;;;;39.85;5.53;;;;;;;;;;4952185;28;20062;-90
2022/01/30 15:17:39;;;;;;;43.90;6.50;;;;;;;;;;4966907;28;20047;-86
2022/01/30 15:20:08;;;;;;;47.78;7.05;;;;;;;;;;4938758;28;20050;-88
2022/01/30 15:22:34;;;;;;;44.63;6.93;;;;;;;;;;4938426;28;20352;-87
2022/01/30 15:25:00;;;;;;;34.35;5.70;;;;;;;;;;4968312;28;20449;-90
2022/01/30 15:27:26;;;;;;;37.85;7.10;;;;;;;;;;4966964;28;20119;-90
2022/01/30 15:29:54;;;;;;;44.70;7.68;;;;;;;;;;4924759;28;20086;-85
2022/01/30 15:32:20;;;;;;;52.80;8.95;;;;;;;;;;4966609;28;20035;-85
2022/01/30 15:34:46;;;;;;;37.95;7.05;;;;;;;;;;4938205;28;20090;-84
2022/01/30 15:37:13;;;;;;;44.55;6.78;;;;;;;;;;4961805;28;20035;-85
2022/01/30 15:39:39;;;;;;;46.08;7.28;;;;;;;;;;4959182;28;20062;-84
2022/01/30 15:42:06;;;;;;;45.03;6.90;;;;;;;;;;4965053;28;20601;-86
2022/01/30 15:50:02;;;;;;;37.40;6.75;;;;;;;;;;4948028;28;20073;-83
2022/01/30 15:52:28;;;;;;;45.40;7.45;;;;;;;;;;4965123;28;20368;-84